Van Buren Township, Michigan
Current Conditions -  °F | °C
As of 2:53 PM on Wednesday 28 Jan 2015 (Local Time) from KYIP Reporting Station
Clear Clear  
Wind Chill: 24°   Ceiling: Unl
Heat Index: 32°   Visibility: 10mi
Dew Point: 11°   Wind: 9mph
Humidity: 42%   Direction: 180°S
Pressure: 30.27"   Gusts: NA
Location:  42.1781°N, 83.4854°W
Report Text: KYIP 281953Z AUTO 18008KT 10SM CLR 00/M12 A3027 RMK AO2 SLP259 T00001117 TSNO
Loading
Personal Weather Stations






























Interactive Weather Map New forecast layout! Learn more

10-Day Weather Forecast

Advertisements
Track Severe Weather on mobile